• Join FlightAware (Why Join?)
  • Login
  • US Flag 
09:57AM EDT


 

Airport Tracker/Info


-or-


 

Live Flight TrackerFlight Track Log ✈ ACA831 ✈ 17-Jun-2013 ✈ LSGG / GVA - CYUL

Flight Track Log - Related Links

Times and Time Zones

All times are in EDT time to prevent confusion due to time zone crossing. See the ACA831 flight status page for this flight to view local times or setup timezone preferences in your user account.

Time Position Orientation Groundspeed Altitude Reporting Facility
EDT Latitude Longitude Course Direction KTS MPH feet Rate Location/Type
06:47AM 46.2330 6.1070 North  Level FlightAware
06:50AM 46.2330 6.1060 270° West 6 7 60 Level FlightAware
06:51AM 46.2330 6.1050 270° West 8 9 60 Level FlightAware
06:51AM 46.2320 6.1060 145° Southeast 9 10 60 Level FlightAware
06:51AM 46.2320 6.1070 90° East 9 10 60 Level FlightAware
06:52AM 46.2320 6.1080 90° East 11 13 60 Level FlightAware
06:52AM 46.2330 6.1080 360° North 13 15 60 Level FlightAware
06:52AM 46.2340 6.1090 35° Northeast 14 16 60 Level FlightAware
06:52AM 46.2350 6.1110 54° Northeast 16 18 60 Level FlightAware
06:54AM 46.2380 6.1120 13° North 13 15 60 Level FlightAware
06:54AM 46.2390 6.1130 35° Northeast 14 16 120 Level FlightAware
06:54AM 46.2400 6.1150 54° Northeast 19 22 120 Level FlightAware
06:55AM 46.2420 6.1180 46° Northeast 19 22 120 Level FlightAware
06:55AM 46.2430 6.1200 54° Northeast 18 21 120 Level FlightAware
06:56AM 46.2450 6.1220 35° Northeast 13 15 120 Level FlightAware
06:56AM 46.2460 6.1240 54° Northeast 14 16 120 Level FlightAware
06:57AM 46.2470 6.1250 35° Northeast 5 6 120 Level FlightAware
06:57AM 46.2470 6.1260 90° East 5 6 120 Level FlightAware
06:59AM 46.2480 6.1260 360° North 3 3 180 Level FlightAware
06:59AM 46.2480 6.1270 90° East 3 3 180 Level FlightAware
07:02AM 46.3900 5.7738 301° West  Level Estimated
07:02AM 46.2490 6.1270 301° West 4 5  Level FlightAware
07:04AM 46.3619 5.8465 296° West  Level Estimated
07:04AM 46.2500 6.1270 296° West 8 9  Level FlightAware
07:05AM 46.2500 6.1260 270° West 2 2 780 Level FlightAware
07:05AM 46.2430 6.1170 222° Southwest 130 150 1,800 Level FlightAware
07:06AM 46.2330 6.1020 226° Southwest 188 216 1,500 3,480 Climbing FlightAware
07:06AM 46.2080 6.0650 226° Southwest 188 216 3,500 2,760 Climbing FlightAware
07:07AM 46.1950 6.0470 224° Southwest 184 212 4,300 2,220 Climbing FlightAware
07:07AM 46.1800 6.0250 225° Southwest 182 209 5,200 2,040 Climbing FlightAware
07:08AM 46.1630 5.9990 227° Southwest 174 200 6,200 2,100 Climbing FlightAware
07:08AM 46.1550 5.9870 226° Southwest 171 197 6,800 1,920 Climbing FlightAware
07:08AM 46.1410 5.9640 229° Southwest 179 206 7,500 1,500 Climbing FlightAware
07:09AM 46.1370 5.9460 252° West 212 244 7,800 1,080 Climbing FlightAware
07:09AM 46.1560 5.9030 303° West 268 308 8,400 1,440 Climbing FlightAware
07:10AM 46.1890 5.8930 348° North 308 354 9,200 1,980 Climbing FlightAware
07:10AM 46.2560 5.8930 360° North 320 368 10,800 1,680 Climbing FlightAware
07:11AM 46.3430 5.8890 358° North 368 423 12,000 1,380 Climbing FlightAware
07:12AM 46.4160 5.8850 358° North 404 465 12,900 1,800 Climbing FlightAware
07:13AM 46.5040 5.8830 359° North 422 486 14,600 2,220 Climbing FlightAware
07:13AM 46.5910 5.8800 359° North 431 496 16,300 2,160 Climbing FlightAware
07:14AM 46.6620 5.8650 352° North 439 505 17,600 2,040 Climbing FlightAware
07:15AM 46.7460 5.7800 325° Northwest 445 512 19,200 1,920 Climbing FlightAware
07:15AM 46.8000 5.7120 319° Northwest 454 522 20,300 1,860 Climbing FlightAware
07:16AM 46.8740 5.6160 318° Northwest 459 528 21,800 1,680 Climbing FlightAware
07:17AM 46.9210 5.5550 318° Northwest 471 542 22,700 1,740 Climbing FlightAware
07:17AM 46.9990 5.4530 318° Northwest 480 552 24,100 1,740 Climbing FlightAware
07:18AM 47.0730 5.3570 319° Northwest 490 564 25,300 1,680 Climbing FlightAware
07:19AM 47.1420 5.2670 318° Northwest 493 567 26,600 1,800 Climbing FlightAware
07:20AM 47.2120 5.1750 318° Northwest 490 564 27,900 1,920 Climbing FlightAware
07:20AM 47.2770 5.0780 315° West 484 557 29,200 1,860 Climbing FlightAware
07:21AM 47.3350 4.9600 306° West 474 545 30,500 1,740 Climbing FlightAware
07:22AM 47.3860 4.8500 304° West 465 535 31,800 1,080 Climbing FlightAware
07:22AM 47.4260 4.7630 304° West 464 534 32,000 120 Climbing FlightAware
07:23AM 47.5040 4.5930 304° West 460 529 32,000  Level FlightAware
07:24AM 47.5580 4.4750 304° West 460 529 32,000  Level FlightAware
07:25AM 47.6040 4.3740 304° West 461 531 32,000 60 Level FlightAware
07:26AM 47.6720 4.2250 304° West 462 532 32,100 480 Climbing FlightAware
07:26AM 47.7320 4.1180 310° West 473 544 32,900 1,080 Climbing FlightAware
07:27AM 47.8090 4.0360 324° Northwest 484 557 33,700 780 Climbing FlightAware
07:28AM 47.8870 3.9650 329° Northwest 485 558 34,000 240 Climbing FlightAware
07:28AM 47.9254 3.9298 328° Northwest 486 559 34,000  Level FlightAware ADS-B
07:29AM 48.0146 3.8486 329° Northwest 486 559 34,000  Level FlightAware ADS-B
07:29AM 48.0737 3.7947 329° Northwest 485 558 34,000  Level FlightAware ADS-B
07:30AM 48.1337 3.7362 327° Northwest 485 558 34,000  Level FlightAware ADS-B
07:30AM 48.1962 3.6727 326° Northwest 485 558 34,000  Level FlightAware ADS-B
07:31AM 48.2328 3.6402 329° Northwest 489 563 34,000  Level FlightAware ADS-B
07:31AM 48.2967 3.5941 334° Northwest 491 565 34,000  Level FlightAware ADS-B
07:32AM 48.3587 3.5489 334° Northwest 491 565 34,000  Level FlightAware ADS-B
07:32AM 48.4223 3.5013 334° Northwest 490 564 34,000  Level FlightAware ADS-B
07:33AM 48.4879 3.4509 333° Northwest 487 560 34,000  Level FlightAware ADS-B
07:33AM 48.5582 3.4000 334° Northwest 488 562 34,000  Level FlightAware ADS-B
07:34AM 48.6300 3.3480 334° Northwest 484 557 34,000  Level FlightAware
07:34AM 48.6679 3.3203 334° Northwest 483 556 34,000  Level FlightAware ADS-B
07:35AM 48.7296 3.2750 334° Northwest 484 557 34,000  Level FlightAware ADS-B
07:35AM 48.7983 3.2245 334° Northwest 485 558 34,000  Level FlightAware ADS-B
07:36AM 48.8614 3.1778 334° Northwest 486 559 34,000  Level FlightAware ADS-B
07:36AM 48.9224 3.1327 334° Northwest 487 560 34,000  Level FlightAware ADS-B
07:37AM 48.9859 3.0857 334° Northwest 488 562 34,000  Level FlightAware ADS-B
07:38AM 49.0567 3.0331 334° Northwest 488 562 34,000  Level FlightAware ADS-B
07:38AM 49.1265 2.9813 334° Northwest 487 560 34,000  Level FlightAware ADS-B
07:39AM 49.1901 2.9338 334° Northwest 486 559 34,000  Level FlightAware ADS-B
07:39AM 49.2521 2.8875 334° Northwest 485 558 34,000  Level FlightAware ADS-B
07:40AM 49.3161 2.8394 334° Northwest 485 558 34,000  Level FlightAware ADS-B
07:40AM 49.3601 2.8037 334° Northwest 1 1 34,000  Level FlightAware UK
07:40AM 49.3764 2.7940 334° Northwest 483 556 34,000  Level FlightAware ADS-B
07:41AM 49.4380 2.7475 334° Northwest 483 556 34,000  Level FlightAware ADS-B
07:41AM 49.5110 2.6930 334° Northwest 481 554 34,000  Level FlightAware
07:41AM 49.5325 2.6760 333° Northwest 481 554 34,000  Level FlightAware ADS-B
07:42AM 49.5926 2.6304 334° Northwest 480 552 34,000  Level FlightAware ADS-B
07:43AM 49.6716 2.5706 334° Northwest 1 1 34,000  Level FlightAware UK
07:43AM 49.6710 2.5700 334° Northwest 478 550 34,000  Level FlightAware
07:43AM 49.6993 2.5489 334° Northwest 477 549 34,000  Level FlightAware ADS-B
07:43AM 49.7580 2.5040 334° Northwest 476 548 34,000 -120 Level FlightAware
07:44AM 49.8128 2.4599 334° Northwest 458 527 33,900  Descending FlightAware UK
07:44AM 49.8434 2.4383 334° Northwest 477 549 34,000 60 Climbing FlightAware ADS-B
07:45AM 49.9160 2.3820 333° Northwest 477 549 34,000  Level FlightAware
07:45AM 49.9502 2.3559 334° Northwest 477 549 34,000  Level FlightAware ADS-B
07:46AM 50.0135 2.3068 334° Northwest 477 549 34,000  Level FlightAware ADS-B
07:46AM 50.0739 2.2599 334° Northwest 479 551 34,000  Level FlightAware ADS-B
07:47AM 50.1328 2.2146 334° Northwest 458 527 34,000  Level FlightAware UK
07:47AM 50.1638 2.1898 334° Northwest 479 551 34,000  Level FlightAware ADS-B
07:47AM 50.2042 2.1583 334° Northwest 456 525 34,000  Level FlightAware UK
07:48AM 50.2544 2.1189 334° Northwest 482 555 34,000  Level FlightAware ADS-B
07:48AM 50.3430 2.0470 334° Northwest 482 555 34,000  Level FlightAware
07:48AM 50.3476 2.0454 334° Northwest 460 529 34,000  Level FlightAware UK
07:49AM 50.4130 1.9730 326° Northwest 476 548 34,000  Level FlightAware
07:50AM 50.4925 1.8676 326° Northwest 462 532 34,000  Level FlightAware UK
07:50AM 50.5040 1.8510 326° Northwest 475 547 34,000  Level FlightAware
07:51AM 50.5860 1.7390 319° Northwest 476 548 34,000  Level FlightAware
07:51AM 50.6530 1.6460 319° Northwest 476 548 34,000  Level FlightAware
07:52AM 50.6901 1.5939 319° Northwest 466 536 34,000  Level FlightAware UK
07:52AM 50.7180 1.5550 319° Northwest 476 548 34,000  Level FlightAware
07:53AM 50.7887 1.4559 319° Northwest 466 536 34,000  Level FlightAware UK
07:53AM 50.7860 1.4600 319° Northwest 475 547 34,000  Level FlightAware
07:53AM 50.8600 1.3560 318° Northwest 476 548 34,000  Level FlightAware
07:54AM 50.8880 1.3167 318° Northwest 464 534 34,000  Level FlightAware UK
07:54AM 50.9270 1.2610 318° Northwest 475 547 34,000  Level FlightAware
07:55AM 50.9958 1.1641 318° Northwest 464 534 34,000  Level FlightAware UK
07:55AM 50.9980 1.1610 318° Northwest 475 547 34,000 -180 Level FlightAware
07:56AM 51.0664 1.0697 318° Northwest 464 534 33,900  Descending FlightAware UK
07:56AM 51.0700 1.0660 318° Northwest 481 554 34,000 120 Climbing FlightAware
07:56AM 51.1339 1.0007 318° Northwest 462 532 34,000  Level FlightAware UK
07:56AM 51.1480 0.9880 318° Northwest 487 560 34,000  Level FlightAware
07:56AM 51.1635 0.9733 329° Northwest 488 562 34,000  Level FlightAware ADS-B
07:57AM 51.2219 0.9183 330° Northwest 489 563 34,000  Level FlightAware ADS-B
07:57AM 51.2847 0.8595 330° Northwest 489 563 34,000  Level FlightAware ADS-B
07:58AM 51.3447 0.8029 330° Northwest 488 562 34,000  Level FlightAware ADS-B
07:58AM 51.3778 0.7713 330° Northwest 464 534 34,000  Level FlightAware UK
07:58AM 51.4044 0.7462 330° Northwest 488 562 34,000  Level FlightAware ADS-B
07:59AM 51.4474 0.7050 330° Northwest 462 532 34,000  Level FlightAware UK
07:59AM 51.4639 0.6893 330° Northwest 488 562 34,000  Level FlightAware ADS-B
07:59AM 51.5221 0.6336 329° Northwest 488 562 34,000  Level FlightAware ADS-B
08:00AM 51.5815 0.5766 329° Northwest 488 562 34,000  Level FlightAware ADS-B
08:00AM 51.6421 0.5180 329° Northwest 488 562 34,000  Level FlightAware ADS-B
08:01AM 51.6907 0.4712 329° Northwest 466 536 34,000  Level FlightAware UK
08:01AM 51.7094 0.4530 329° Northwest 487 560 34,000  Level FlightAware ADS-B
08:02AM 51.7714 0.3927 329° Northwest 486 559 34,000  Level FlightAware ADS-B
08:02AM 51.8330 0.3327 329° Northwest 486 559 34,000  Level FlightAware ADS-B
08:02AM 51.8628 0.3040 329° Northwest 464 534 34,000  Level FlightAware UK
08:03AM 51.9066 0.2608 329° Northwest 485 558 34,000  Level FlightAware ADS-B
08:03AM 51.9546 0.2141 329° Northwest 464 534 34,000  Level FlightAware UK
08:03AM 51.9643 0.2044 329° Northwest 484 557 34,000  Level FlightAware ADS-B
08:04AM 52.0244 0.1453 329° Northwest 483 556 34,000  Level FlightAware ADS-B
08:04AM 52.0688 0.1015 329° Northwest 464 534 34,000  Level FlightAware UK
08:04AM 52.0848 0.0858 329° Northwest 482 555 34,000  Level FlightAware ADS-B
08:05AM 52.1446 0.0265 329° Northwest 482 555 34,000  Level FlightAware ADS-B
08:05AM 52.2082 -0.0365 329° Northwest 482 555 34,000  Level FlightAware ADS-B
08:06AM 52.2687 -0.0967 329° Northwest 481 554 34,000  Level FlightAware ADS-B
08:06AM 52.3285 -0.1563 329° Northwest 481 554 34,000  Level FlightAware ADS-B
08:07AM 52.3865 -0.2145 329° Northwest 480 552 34,000  Level FlightAware ADS-B
08:08AM 52.4471 -0.2753 329° Northwest 480 552 34,000  Level FlightAware ADS-B
08:08AM 52.5043 -0.3331 328° Northwest 480 552 34,000  Level FlightAware ADS-B
08:08AM 52.5343 -0.3635 328° Northwest 460 529 34,000  Level FlightAware UK
08:09AM 52.5610 -0.3906 328° Northwest 481 554 34,000  Level FlightAware ADS-B
08:09AM 52.5908 -0.4211 328° Northwest 460 529 34,000  Level FlightAware UK
08:09AM 52.6180 -0.4485 328° Northwest 481 554 34,000  Level FlightAware ADS-B
08:10AM 52.6761 -0.5076 328° Northwest 481 554 34,000  Level FlightAware ADS-B
08:10AM 52.7360 -0.5686 328° Northwest 481 554 34,000  Level FlightAware ADS-B
08:11AM 52.7961 -0.6303 328° Northwest 481 554 34,000  Level FlightAware ADS-B
08:11AM 52.8531 -0.6889 328° Northwest 482 555 34,000  Level FlightAware ADS-B
08:12AM 52.9450 -0.7840 328° Northwest 482 555 34,000  Level FlightAware
08:12AM 52.9751 -0.8149 328° Northwest 462 532 34,000  Level FlightAware UK
08:13AM 53.0220 -0.8630 328° Northwest 483 556 34,000  Level FlightAware
08:13AM 53.1040 -0.9490 328° Northwest 483 556 34,000  Level FlightAware
08:14AM 53.1810 -1.0300 328° Northwest 483 556 34,000  Level FlightAware
08:15AM 53.2580 -1.1100 328° Northwest 484 557 34,000  Level FlightAware
08:15AM 53.3371 -1.1941 328° Northwest 460 529 34,000  Level FlightAware UK
08:15AM 53.3350 -1.1920 328° Northwest 484 557 34,000  Level FlightAware
08:16AM 53.3938 -1.2542 328° Northwest 462 532 34,000  Level FlightAware UK
08:16AM 53.4190 -1.2790 328° Northwest 487 560 34,000  Level FlightAware
08:17AM 53.5010 -1.3580 330° Northwest 489 563 34,000  Level FlightAware
08:18AM 53.5810 -1.4340 331° Northwest 490 564 34,000  Level FlightAware
08:18AM 53.6525 -1.5019 331° Northwest 460 529 34,000  Level FlightAware UK
08:18AM 53.6710 -1.5190 331° Northwest 490 564 34,000  Level FlightAware
08:19AM 53.7116 -1.5584 331° Northwest 460 529 34,000  Level FlightAware UK
08:19AM 53.7490 -1.5940 331° Northwest 491 565 34,000  Level FlightAware
08:20AM 53.8360 -1.6780 330° Northwest 493 567 34,000  Level FlightAware
08:20AM 53.9090 -1.7480 331° Northwest 493 567 34,000  Level FlightAware
08:21AM 53.9950 -1.8300 331° Northwest 493 567 34,000  Level FlightAware
08:21AM 54.0547 -1.8887 331° Northwest 460 529 34,000  Level FlightAware UK
08:22AM 54.0850 -1.9180 331° Northwest 494 568 34,000  Level FlightAware
08:22AM 54.1630 -1.9940 330° Northwest 494 568 34,000  Level FlightAware
08:23AM 54.2310 -2.0610 330° Northwest 495 570 34,000  Level FlightAware
08:24AM 54.3190 -2.1480 330° Northwest 488 562 34,000  Level FlightAware
08:24AM 54.3980 -2.2260 330° Northwest 487 560 34,000  Level FlightAware
08:24AM 54.4111 -2.2383 330° Northwest 468 539 34,000  Level FlightAware UK
08:25AM 54.4933 -2.3201 330° Northwest 470 541 34,000  Level FlightAware UK
08:25AM 54.5020 -2.3290 330° Northwest 490 564 34,000  Level FlightAware
08:26AM 54.5519 -2.3786 330° Northwest 470 541 34,000  Level FlightAware UK
08:26AM 54.5730 -2.4000 330° Northwest 487 560 34,000  Level FlightAware
08:27AM 54.6660 -2.4930 330° Northwest 482 555 34,000  Level FlightAware
08:27AM 54.7420 -2.5700 330° Northwest 479 551 34,000  Level FlightAware
08:28AM 54.8040 -2.6330 330° Northwest 476 548 34,000  Level FlightAware
08:29AM 54.8960 -2.7260 330° Northwest 472 543 34,000  Level FlightAware
08:29AM 54.9071 -2.7377 330° Northwest 468 539 34,000  Level FlightAware UK
08:29AM 54.9710 -2.8030 329° Northwest 468 539 34,000  Level FlightAware
08:30AM 55.0412 -2.8751 329° Northwest 468 539 34,000  Level FlightAware UK
08:30AM 55.0580 -2.8930 329° Northwest 465 535 34,000  Level FlightAware
08:30AM 55.0966 -2.9323 329° Northwest 464 534 34,000  Level FlightAware UK
08:31AM 55.1280 -2.9690 329° Northwest 450 518 34,000  Level FlightAware
08:31AM 55.1782 -3.0627 329° Northwest 458 527 34,000  Level FlightAware UK
08:31AM 55.1830 -3.0760 329° Northwest 436 502 34,000  Level FlightAware
08:32AM 55.2130 -3.1944 329° Northwest 464 534 34,000  Level FlightAware UK
08:32AM 55.2150 -3.2030 329° Northwest 425 489 34,000  Level FlightAware
08:33AM 55.2400 -3.3510 287° West 424 488 34,000  Level FlightAware
08:34AM 55.2650 -3.5020 286° West 425 489 34,000  Level FlightAware
08:34AM 55.2920 -3.6290 291° West 429 494 34,000  Level FlightAware
08:35AM 55.3132 -3.7240 291° West 460 529 34,000  Level FlightAware UK
08:35AM 55.3210 -3.7610 291° West 437 503 34,000  Level FlightAware
08:36AM 55.3540 -3.9110 291° West 440 506 34,000  Level FlightAware
08:36AM 55.3834 -4.0438 291° West 468 539 34,000  Level FlightAware UK
08:36AM 55.3840 -4.0460 291° West 440 506 34,000  Level FlightAware
08:37AM 55.4130 -4.1800 291° West 441 507 34,000  Level FlightAware
08:38AM 55.4358 -4.2850 291° West 468 539 34,000  Level FlightAware UK
08:38AM 55.4430 -4.3210 291° West 443 510 34,000  Level FlightAware
08:39AM 55.4740 -4.4660 291° West 443 510 34,000 -120 Level FlightAware
08:39AM 55.5009 -4.5909 291° West 472 543 33,900  Descending FlightAware UK
08:39AM 55.5040 -4.6050 291° West 444 511 34,000  Climbing FlightAware
08:40AM 55.5226 -4.6931 291° West 468 539 33,900  Descending FlightAware UK
08:40AM 55.5330 -4.7430 291° West 445 512 34,000  Climbing FlightAware
08:40AM 55.5483 -4.8161 291° West 468 539 33,900  Descending FlightAware UK
08:41AM 55.5640 -4.8940 291° West 446 513 34,000 60 Climbing FlightAware
08:41AM 55.5840 -5.0580 291° West 449 517 34,000  Level FlightAware
08:41AM 55.5851 -5.0703 291° West 470 541 34,000  Level FlightAware UK
08:42AM 55.5964 -5.2008 291° West 470 541 34,000  Level FlightAware UK
08:42AM 55.5900 -5.1250 291° West 450 518 34,000  Level FlightAware
08:43AM 55.6074 -5.3308 291° West 468 539 34,000  Level FlightAware UK
08:43AM 55.5970 -5.2130 291° West 450 518 34,000  Level FlightAware
08:43AM 55.6163 -5.4397 291° West 468 539 34,000  Level FlightAware UK
08:43AM 55.6220 -5.5090 291° West 450 518 34,000  Level FlightAware
08:44AM 55.6264 -5.5708 291° West 468 539 34,000  Level FlightAware UK
08:44AM 55.6349 -5.6801 278° West 466 536 34,000  Level FlightAware UK
08:44AM 55.6340 -5.6710 278° West 450 518 34,000  Level FlightAware
08:45AM 55.6467 -5.8333 278° West 470 541 34,000  Level FlightAware UK
08:45AM 55.6480 -5.8450 278° West 450 518 34,000  Level FlightAware
08:46AM 55.6600 -6.0084 278° West 468 539 34,000  Level FlightAware UK
08:46AM 55.6640 -6.0640 278° West 450 518 34,000  Level FlightAware
08:47AM 55.6760 -6.2290 278° West 451 519 34,000  Level FlightAware
08:47AM 55.6777 -6.2491 278° West 470 541 34,000  Level FlightAware UK
08:47AM 55.6880 -6.3950 277° West 449 517 34,000  Level FlightAware
08:48AM 55.6983 -6.5344 277° West 470 541 34,000  Level FlightAware UK
08:48AM 55.6990 -6.5410 277° West 450 518 34,000  Level FlightAware
08:49AM 55.7059 -6.6442 277° West 472 543 34,000  Level FlightAware UK
08:49AM 55.7100 -6.7060 277° West 451 519 34,000  Level FlightAware
08:50AM 55.7200 -6.8510 277° West 450 518 34,000  Level FlightAware
08:50AM 55.7284 -6.9732 277° West 472 543 34,000  Level FlightAware UK
08:50AM 55.7290 -6.9850 277° West 449 517 34,000  Level FlightAware
08:51AM 55.7358 -7.0825 277° West 470 541 34,000  Level FlightAware UK
08:51AM 55.7400 -7.1530 277° West 448 516 34,000  Level FlightAware
08:52AM 55.7470 -7.2500 277° West 447 514 34,000  Level FlightAware
08:52AM 55.7499 -7.3012 277° West 474 545 34,000  Level FlightAware UK
08:52AM 55.7570 -7.4101 277° West 472 543 34,000  Level FlightAware UK
08:52AM 55.7590 -7.4440 277° West 444 511 34,000  Level FlightAware
08:53AM 55.7649 -7.5395 277° West 472 543 34,000  Level FlightAware UK
08:53AM 55.7690 -7.6080 277° West 443 510 34,000  Level FlightAware
08:54AM 55.7782 -7.7555 277° West 470 541 34,000  Level FlightAware UK
08:54AM 55.7780 -7.7590 277° West 441 507 34,000  Level FlightAware
08:54AM 55.7848 -7.8631 277° West 466 536 34,000  Level FlightAware UK
08:54AM 55.7880 -7.9220 277° West 440 506 34,000  Level FlightAware
08:55AM 55.7960 -8.0630 276° West 439 505 34,000  Level FlightAware
08:55AM 55.8009 -8.1420 276° West 468 539 34,000  Level FlightAware UK
08:56AM 55.8050 -8.2150 276° West 437 503 34,000  Level FlightAware
08:56AM 55.8130 -8.3559 276° West 464 534 34,000  Level FlightAware UK
08:57AM 55.8130 -8.3540 276° West 437 503 34,000  Level FlightAware
08:57AM 55.8187 -8.4626 276° West 462 532 34,000  Level FlightAware UK
08:57AM 55.8210 -8.5020 276° West 437 503 34,000  Level FlightAware
08:57AM 55.8247 -8.5693 276° West 464 534 34,000  Level FlightAware UK
08:58AM 55.8290 -8.6490 275° West 436 502 34,000  Level FlightAware
08:58AM 55.8303 -8.6761 275° West 464 534 34,000  Level FlightAware UK
08:59AM 55.8370 -8.8040 275° West 437 503 34,000  Level FlightAware
08:59AM 55.8381 -8.8254 275° West 468 539 34,000  Level FlightAware UK
08:59AM 55.8435 -8.9326 275° West 468 539 34,000  Level FlightAware UK
08:59AM 55.8440 -8.9450 275° West 436 502 34,000  Level FlightAware
09:00AM 55.8520 -9.1020 275° West 435 501 34,000  Level FlightAware
09:01AM 55.8590 -9.2470 275° West 434 499 34,000  Level FlightAware
09:02AM 55.8690 -9.4600 275° West 430 495 34,000  Level FlightAware
09:02AM 55.8760 -9.6040 275° West 426 490 34,000  Level FlightAware
09:03AM 55.8820 -9.7560 274° West 422 486 34,000  Level FlightAware
09:04AM 55.8880 -9.8950 274° West 419 482 34,000  Level FlightAware
09:04AM 55.8950 -10.0480 275° West 417 480 34,000  Level FlightAware
09:05AM 55.9000 -10.1800 274° West 414 476 34,000  Level FlightAware
09:06AM 55.9060 -10.3200 274° West 413 475 34,000  Level FlightAware
09:06AM 55.9110 -10.4590 274° West 412 474 34,000  Level FlightAware
09:07AM 55.9170 -10.6080 274° West 411 473 34,000  Level FlightAware
09:08AM 55.9220 -10.7420 274° West 410 472 34,000  Level FlightAware
09:09AM 55.9260 -10.8760 273° West 409 471 34,000  Level FlightAware
09:09AM 55.9320 -11.0440 274° West 409 471 34,000  Level FlightAware
09:10AM 55.9360 -11.1570 274° West 409 471 34,000  Level FlightAware
09:11AM 55.9410 -11.3150 273° West 410 472 34,000  Level FlightAware
09:11AM 55.9450 -11.4690 273° West 412 474 34,000  Level FlightAware
09:12AM 55.9490 -11.5990 273° West 413 475 34,000  Level FlightAware
09:13AM 55.9540 -11.7750 273° West 413 475 34,000  Level FlightAware
09:14AM 55.9560 -11.8820 272° West 413 475 34,000  Level FlightAware
09:15AM 55.9580 -12.0240 272° West 413 475 34,000  Level FlightAware
09:15AM 55.9600 -12.1310 272° West 413 475 34,000  Level FlightAware
09:16AM 55.9630 -12.2700 272° West 413 475 34,000  Level FlightAware
09:17AM 55.9650 -12.3810 272° West 413 475 34,000  Level FlightAware
09:17AM 55.9680 -12.5200 272° West 413 475 34,000  Level FlightAware
09:18AM 55.9700 -12.6300 272° West 413 475 34,000  Level FlightAware
09:19AM 55.9720 -12.7370 272° West 413 475 34,000  Level FlightAware
09:19AM 55.9750 -12.8740 272° West 413 475 34,000  Level FlightAware
09:20AM 55.9770 -12.9840 272° West 413 475 34,000  Level FlightAware
09:21AM 55.9790 -13.0880 272° West 413 475 34,000  Level FlightAware
09:21AM 55.9810 -13.1930 272° West 413 475 34,000  Level FlightAware
09:22AM 55.9850 -13.3700 272° West 413 475 34,000 -60 Level FlightAware
09:25AM 56.0311 -13.8294 280° West  Level Estimated
09:26AM 56.0510 -14.0340 280° West  Level Estimated
09:27AM 56.0705 -14.2387 280° West  Level Estimated
09:28AM 56.0898 -14.4437 280° West  Level Estimated
09:29AM 56.1087 -14.6488 279° West  Level Estimated
09:30AM 56.1273 -14.8542 279° West  Level Estimated
09:31AM 56.1455 -15.0597 279° West  Level Estimated
09:32AM 56.1633 -15.2654 279° West  Level Estimated
09:33AM 56.1809 -15.4714 279° West  Level Estimated
09:34AM 56.1992 -15.6904 279° West  Level Estimated
09:35AM 56.2170 -15.9097 278° West  Level Estimated
09:36AM 56.2345 -16.1292 278° West  Level Estimated
09:37AM 56.2516 -16.3488 278° West  Level Estimated
09:38AM 56.2683 -16.5687 278° West  Level Estimated
09:39AM 56.2846 -16.7887 278° West  Level Estimated
09:40AM 56.3006 -17.0090 278° West  Level Estimated
09:41AM 56.3247 -17.2223 282° West  Level FlightAware Approximate
09:42AM 56.3679 -17.4322 295° West  Level FlightAware Approximate
09:43AM 56.4192 -17.6298 295° West  Level FlightAware Approximate
09:44AM 56.4702 -17.8279 295° West  Level FlightAware Approximate
09:45AM 56.5208 -18.0265 295° West  Level FlightAware Approximate
09:46AM 56.5712 -18.2257 295° West  Level FlightAware Approximate
09:47AM 56.6212 -18.4254 295° West  Level FlightAware Approximate
09:48AM 56.6709 -18.6256 294° West  Level FlightAware Approximate
09:49AM 56.7203 -18.8264 294° West  Level FlightAware Approximate
09:50AM 56.7693 -19.0276 294° West  Level FlightAware Approximate
09:51AM 56.8181 -19.2294 294° West  Level FlightAware Approximate
09:52AM 56.8665 -19.4317 294° West  Level FlightAware Approximate
09:53AM 56.9145 -19.6346 294° West  Level FlightAware Approximate
09:54AM 56.9623 -19.8379 293° West  Level FlightAware Approximate
09:55AM 57.0063 -20.0440 285° West  Level FlightAware Approximate
09:56AM 57.0000 -20.0000 285° West 436 502 33,000  Level ETMS Enhanced Traffic Management System
09:56AM 57.0368 -20.2587 285° West  Level FlightAware Approximate
09:57AM 57.0669 -20.4737 285° West  Level FlightAware Approximate
09:58AM 57.0966 -20.6892 284° West  Level FlightAware Approximate
09:59AM 57.1259 -20.9049 284° West  Level FlightAware Approximate
10:00AM 57.1549 -21.1210 284° West  Level FlightAware Approximate
10:01AM 57.1836 -21.3375 284° West  Level FlightAware Approximate
10:02AM 57.2627 -21.9531 283° West 436 502 33,000  Level FlightAware Transoceanic
10:03AM 57.2900 -22.1718 283° West 436 502 33,000  Level FlightAware Transoceanic
10:04AM 57.3169 -22.3908 283° West 436 502 33,000  Level FlightAware Transoceanic
10:05AM 57.3434 -22.6101 283° West 436 502 33,000  Level FlightAware Transoceanic
10:06AM 57.3696 -22.8298 282° West 436 502 33,000  Level FlightAware Transoceanic
10:07AM 57.3954 -23.0497 282° West 436 502 33,000  Level FlightAware Transoceanic
10:08AM 57.4208 -23.2700 282° West 436 502 33,000  Level FlightAware Transoceanic
10:09AM 57.4458 -23.4905 282° West 436 502 33,000  Level FlightAware Transoceanic
10:10AM 57.4704 -23.7114 282° West 436 502 33,000  Level FlightAware Transoceanic
10:11AM 57.4946 -23.9326 281° West 436 502 33,000  Level FlightAware Transoceanic
10:12AM 57.5185 -24.1540 281° West 436 502 33,000  Level FlightAware Transoceanic
10:13AM 57.5419 -24.3757 281° West 436 502 33,000  Level FlightAware Transoceanic
10:14AM 57.5650 -24.5978 281° West 436 502 33,000  Level FlightAware Transoceanic
10:15AM 57.5877 -24.8201 281° West 436 502 33,000  Level FlightAware Transoceanic
10:16AM 57.6100 -25.0427 280° West 436 502 33,000  Level FlightAware Transoceanic
10:17AM 57.6319 -25.2655 280° West 436 502 33,000  Level FlightAware Transoceanic
10:18AM 57.6534 -25.4886 280° West 436 502 33,000  Level FlightAware Transoceanic
10:19AM 57.6745 -25.7120 280° West 436 502 33,000  Level FlightAware Transoceanic
10:20AM 57.6952 -25.9356 280° West 436 502 33,000  Level FlightAware Transoceanic
10:21AM 57.7155 -26.1595 280° West 436 502 33,000  Level FlightAware Transoceanic
10:22AM 57.7355 -26.3836 279° West 436 502 33,000  Level FlightAware Transoceanic
10:23AM 57.7550 -26.6080 279° West 436 502 33,000  Level FlightAware Transoceanic
10:24AM 57.7742 -26.8327 279° West 436 502 33,000  Level FlightAware Transoceanic
10:25AM 57.7929 -27.0575 279° West 436 502 33,000  Level FlightAware Transoceanic
10:26AM 57.8112 -27.2826 279° West 436 502 33,000  Level FlightAware Transoceanic
10:27AM 57.8292 -27.5079 278° West 436 502 33,000  Level FlightAware Transoceanic
10:28AM 57.8467 -27.7335 278° West 436 502 33,000  Level FlightAware Transoceanic
10:29AM 57.8638 -27.9592 278° West 436 502 33,000  Level FlightAware Transoceanic
10:30AM 57.8806 -28.1852 278° West 436 502 33,000  Level FlightAware Transoceanic
10:31AM 57.8969 -28.4114 278° West 436 502 33,000  Level FlightAware Transoceanic
10:32AM 57.9129 -28.6377 277° West 436 502 33,000  Level FlightAware Transoceanic
10:33AM 57.9284 -28.8643 277° West 436 502 33,000  Level FlightAware Transoceanic
10:34AM 57.9435 -29.0911 277° West 436 502 33,000  Level FlightAware Transoceanic
10:35AM 57.9582 -29.3180 277° West 436 502 33,000  Level FlightAware Transoceanic
10:36AM 57.9726 -29.5452 277° West 436 502 33,000  Level FlightAware Transoceanic
10:37AM 57.9865 -29.7725 276° West 436 502 33,000 720 Level FlightAware Transoceanic
10:38AM 57.9999 -29.9990 276° West  Level FlightAware Approximate
10:39AM 58.0128 -30.2256 276° West  Level FlightAware Approximate
10:40AM 58.0309 -30.2183 285° West  Level FlightAware Approximate
10:40AM 58.0000 -30.0000 285° West 444 511 36,000  Level ETMS Enhanced Traffic Management System
10:41AM 58.0618 -30.4389 285° West  Level FlightAware Approximate
10:42AM 58.0922 -30.6599 285° West  Level FlightAware Approximate
10:43AM 58.1223 -30.8813 285° West  Level FlightAware Approximate
10:44AM 58.1520 -31.1031 284° West  Level FlightAware Approximate
10:45AM 58.1813 -31.3253 284° West  Level FlightAware Approximate
10:46AM 58.2443 -31.8142 284° West 444 511 36,000  Level FlightAware Transoceanic
10:47AM 58.2730 -32.0427 283° West 444 511 36,000  Level FlightAware Transoceanic
10:48AM 58.3013 -32.2716 283° West 444 511 36,000  Level FlightAware Transoceanic
10:49AM 58.3292 -32.5008 283° West 444 511 36,000  Level FlightAware Transoceanic
10:50AM 58.3567 -32.7304 283° West 444 511 36,000  Level FlightAware Transoceanic
10:51AM 58.3838 -32.9604 283° West 444 511 36,000  Level FlightAware Transoceanic
10:52AM 58.4105 -33.1907 282° West 444 511 36,000  Level FlightAware Transoceanic
10:53AM 58.4367 -33.4213 282° West 444 511 36,000  Level FlightAware Transoceanic
10:54AM 58.4626 -33.6523 282° West 444 511 36,000  Level FlightAware Transoceanic
10:55AM 58.4880 -33.8836 282° West 444 511 36,000  Level FlightAware Transoceanic
10:56AM 58.5130 -34.1153 282° West 444 511 36,000  Level FlightAware Transoceanic
10:57AM 58.5376 -34.3473 281° West 444 511 36,000  Level FlightAware Transoceanic
10:58AM 58.5617 -34.5796 281° West 444 511 36,000  Level FlightAware Transoceanic
10:59AM 58.5855 -34.8122 281° West 444 511 36,000  Level FlightAware Transoceanic
11:00AM 58.6088 -35.0451 281° West 444 511 36,000  Level FlightAware Transoceanic
11:01AM 58.6317 -35.2784 281° West 444 511 36,000  Level FlightAware Transoceanic
11:02AM 58.6542 -35.5119 280° West 444 511 36,000  Level FlightAware Transoceanic
11:03AM 58.6763 -35.7458 280° West 444 511 36,000  Level FlightAware Transoceanic
11:04AM 58.6979 -35.9799 280° West 444 511 36,000  Level FlightAware Transoceanic
11:05AM 58.7191 -36.2143 280° West 444 511 36,000  Level FlightAware Transoceanic
11:05AM 58.7500 -36.2500 279° West 460 529 36,000  Level Gander Center
11:06AM 58.7399 -36.4490 280° West 444 511 36,000  Level FlightAware Transoceanic
11:06AM 58.7833 -36.4667 287° West 460 529 36,000  Level Gander Center
11:07AM 58.7603 -36.6840 279° West 444 511 36,000  Level FlightAware Transoceanic
11:07AM 58.8000 -36.7167 277° West 460 529 36,000  Level Gander Center
11:08AM 58.7802 -36.9193 279° West 444 511 36,000  Level FlightAware Transoceanic
11:08AM 58.8167 -36.9667 277° West 460 529 36,000  Level Gander Center
11:09AM 58.7997 -37.1548 279° West 444 511 36,000  Level FlightAware Transoceanic
11:09AM 58.8333 -37.2000 278° West 460 529 36,000  Level Gander Center
11:10AM 58.8188 -37.3906 279° West 444 511 36,000  Level FlightAware Transoceanic
11:10AM 58.8667 -37.4500 285° West 460 529 36,000  Level Gander Center
11:11AM 58.8667 -37.6833 270° West 460 529 36,000  Level Gander Center
11:12AM 58.9000 -37.9333 285° West 470 541 36,000  Level Gander Center
11:13AM 58.9167 -38.1833 277° West 470 541 36,000  Level Gander Center
11:14AM 58.9333 -38.4167 278° West 470 541 36,000  Level Gander Center
11:15AM 58.9500 -38.6667 277° West 470 541 36,000  Level Gander Center
11:16AM 58.9667 -38.9333 277° West 470 541 36,000  Level Gander Center
11:17AM 58.9833 -39.1500 279° West 470 541 36,000  Level Gander Center
11:18AM 59.0000 -39.4167 277° West 470 541 36,000  Level Gander Center
11:19AM 59.0167 -39.6667 277° West 470 541 36,000  Level Gander Center
11:20AM 59.0333 -39.9000 278° West 470 541 36,000  Level Gander Center
11:21AM 59.0333 -40.1667 270° West 460 529 36,000  Level Gander Center
11:22AM 59.0000 -40.0000 274° West 463 533 36,000  Level ETMS Enhanced Traffic Management System
11:22AM 59.0333 -40.4000 270° West 470 541 36,000  Level Gander Center
11:23AM 59.0667 -40.6500 274° West 460 529 36,000  Level Gander Center
11:24AM 59.0667 -40.8833 270° West 460 529 36,000  Level Gander Center
11:25AM 59.0667 -41.1500 270° West 460 529 36,000  Level Gander Center
11:26AM 59.0667 -41.3833 270° West 460 529 36,000  Level Gander Center
11:27AM 59.1000 -41.6333 285° West 460 529 36,000  Level Gander Center
11:28AM 59.1000 -41.8667 270° West 460 529 36,000  Level Gander Center
11:29AM 59.1000 -42.1333 270° West 460 529 36,000  Level Gander Center
11:30AM 59.1000 -42.3667 270° West 460 529 36,000  Level Gander Center
11:31AM 59.1000 -42.6333 270° West 460 529 36,000  Level Gander Center
11:32AM 59.1167 -42.8500 279° West 460 529 36,000  Level Gander Center
11:33AM 59.1167 -43.1167 270° West 460 529 36,000  Level Gander Center
11:34AM 59.1167 -43.3500 270° West 460 529 36,000  Level Gander Center
11:35AM 59.1167 -43.6167 270° West 460 529 36,000  Level Gander Center
11:36AM 59.1333 -43.8500 278° West 460 529 36,000  Level Gander Center
11:37AM 59.1333 -44.0833 270° West 460 529 36,000  Level Gander Center
11:38AM 59.1333 -44.3500 270° West 460 529 36,000  Level Gander Center
11:39AM 59.1167 -44.5833 262° West 460 529 36,000  Level Gander Center
11:40AM 59.1167 -44.8500 270° West 460 529 36,000  Level Gander Center
11:41AM 59.1333 -45.1000 278° West 460 529 36,000  Level Gander Center
11:42AM 59.1333 -45.3333 270° West 470 541 36,000  Level Gander Center
11:43AM 59.1333 -45.6000 270° West 460 529 36,000  Level Gander Center
11:44AM 59.1167 -45.8333 262° West 460 529 36,000  Level Gander Center
11:45AM 59.1167 -46.1000 270° West 460 529 36,000  Level Gander Center
11:46AM 59.1333 -46.3333 278° West 460 529 36,000  Level Gander Center
11:47AM 59.1167 -46.6000 263° West 460 529 36,000  Level Gander Center
11:48AM 59.1167 -46.8333 270° West 460 529 36,000  Level Gander Center
11:49AM 59.1167 -47.1000 270° West 460 529 36,000  Level Gander Center
11:50AM 59.1000 -47.3333 262° West 460 529 36,000  Level Gander Center
11:51AM 59.1167 -47.6000 277° West 460 529 36,000  Level Gander Center
11:52AM 59.1000 -47.8333 262° West 470 541 36,000  Level Gander Center
11:53AM 59.1000 -48.1000 270° West 470 541 36,000  Level Gander Center
11:54AM 59.0833 -48.3667 263° West 470 541 36,000  Level Gander Center
11:55AM 59.0667 -48.6000 262° West 470 541 36,000  Level Gander Center
11:56AM 59.0667 -48.8667 270° West 470 541 36,000  Level Gander Center
11:57AM 59.0667 -49.1167 270° West 480 552 36,000  Level Gander Center
11:58AM 59.0667 -49.3500 270° West 480 552 36,000  Level Gander Center
11:59AM 59.0500 -49.6167 263° West 480 552 36,000  Level Gander Center
12:00PM 59.0333 -49.8833 263° West 480 552 36,000  Level Gander Center
12:01PM 59.0000 -50.0000 254° West 465 535 36,000  Level ETMS Enhanced Traffic Management System
12:01PM 59.0000 -50.1167 254° West 480 552 36,000  Level Gander Center
12:02PM 58.9667 -50.3667 256° West 480 552 36,000  Level Gander Center
12:03PM 58.9333 -50.6333 256° West 480 552 36,000  Level Gander Center
12:04PM 58.9000 -50.8667 255° West 480 552 36,000  Level Gander Center
12:05PM 58.8500 -51.1167 249° West 480 552 36,000  Level Gander Center
12:06PM 58.8167 -51.3500 255° West 470 541 36,000  Level Gander Center
12:07PM 58.7667 -51.5833 248° West 470 541 36,000  Level Gander Center
12:08PM 58.7333 -51.8167 255° West 470 541 36,000  Level Gander Center
12:09PM 58.7000 -52.0667 256° West 470 541 36,000  Level Gander Center
12:10PM 58.6500 -52.3000 248° West 460 529 36,000  Level Gander Center
12:11PM 58.6167 -52.5333 255° West 460 529 36,000  Level Gander Center
12:12PM 58.5833 -52.7667 255° West 460 529 36,000  Level Gander Center
12:13PM 58.5333 -53.0000 248° West 460 529 36,000  Level Gander Center
12:14PM 58.5000 -53.2333 255° West 460 529 36,000  Level Gander Center
12:15PM 58.4500 -53.4667 248° West 460 529 36,000  Level Gander Center
12:17PM 58.3215 -53.7237 226° Southwest  Level FlightAware Approximate
12:20PM 58.2333 -54.5667 225° Southwest 470 541 36,000  Level Gander Center
12:20PM 58.2000 -54.7000 245° Southwest 470 541 36,000  Level Gander Center
12:21PM 58.1667 -54.9000 253° West 480 552 36,000  Level Gander Center
12:22PM 58.1333 -55.1167 254° West 470 541 36,000  Level Gander Center
12:23PM 58.0667 -55.3833 245° Southwest 470 541 36,000  Level Gander Center
12:24PM 57.7414 -54.8495 226° Southwest  Level FlightAware Approximate
12:24PM 58.0333 -55.4500 227° Southwest 470 541 36,000  Level Gander Center
12:25PM 57.6577 -55.0074 225° Southwest  Level FlightAware Approximate
12:25PM 58.0000 -55.7333 258° West 450 518 36,000  Level Gander Center
12:25PM 57.9667 -55.8333 238° Southwest 450 518 36,000  Level Gander Center
12:26PM 57.9667 -55.9333 270° West 460 529 36,000  Level Gander Center
12:27PM 57.9000 -56.2000 245° Southwest 470 541 36,000  Level Gander Center
12:27PM 57.8833 -56.3000 253° West 470 541 36,000  Level Gander Center
12:28PM 57.8500 -56.4167 242° Southwest 470 541 36,000  Level Gander Center
12:29PM 57.8000 -56.6500 248° West 470 541 36,000  Level Gander Center
12:30PM 57.7667 -56.8500 253° West 470 541 36,000  Level Gander Center
12:30PM 57.7333 -56.9667 242° Southwest 470 541 36,000  Level Gander Center
12:31PM 57.6667 -57.2000 242° Southwest 470 541 36,000  Level Gander Center
12:32PM 57.6667 -57.2833 270° West 470 541 36,000  Level Gander Center
12:33PM 57.6000 -57.5167 242° Southwest 470 541 36,000  Level Gander Center
12:33PM 57.5667 -57.6500 245° Southwest 470 541 36,000  Level Gander Center
12:34PM 57.5500 -57.7000 238° Southwest 470 541 36,000  Level Gander Center
12:35PM 57.5000 -57.9333 248° West 480 552 36,000  Level Gander Center
12:35PM 57.4667 -58.0833 248° West 480 552 36,000  Level Gander Center
12:36PM 57.4500 -58.1833 253° West 480 552 36,000  Level Gander Center
12:37PM 57.3833 -58.3667 236° Southwest 470 541 36,000  Level Gander Center
12:38PM 57.3500 -58.6000 255° West 460 529 36,000  Level Gander Center
12:39PM 57.2833 -58.8167 240° Southwest 460 529 36,000  Level Gander Center
12:40PM 57.2333 -59.0333 247° West 460 529 36,000  Level Gander Center
12:41PM 57.1500 -59.2167 230° Southwest 450 518 36,000  Level Gander Center
12:42PM 57.0500 -59.3500 216° Southwest 450 518 36,000  Level Gander Center
12:42PM 57.0167 -59.4167 227° Southwest 450 518 36,000  Level Gander Center
12:43PM 56.9167 -59.6000 225° Southwest 450 518 36,000  Level Gander Center
12:44PM 56.8000 -59.7333 212° Southwest 470 541 36,000  Level Gander Center
12:45PM 56.7000 -59.8833 219° Southwest 470 541 36,000  Level Gander Center
12:46PM 56.6333 -59.9500 209° Southwest 470 541 36,000  Level Gander Center
12:47PM 56.5333 -60.1000 220° Southwest 460 529 36,000  Level Gander Center
12:47PM 56.4833 -60.1667 216° Southwest 470 541 36,000  Level Gander Center
12:48PM 56.3833 -60.2833 213° Southwest 460 529 36,000  Level Gander Center
12:49PM 56.3333 -60.3833 228° Southwest 460 529 36,000  Level Gander Center
12:49PM 56.2833 -60.4333 209° Southwest 460 529 36,000  Level Gander Center
12:50PM 56.1833 -60.5667 217° Southwest 460 529 36,000  Level Gander Center
12:51PM 56.1167 -60.6500 215° Southwest 460 529 36,000  Level Gander Center
12:52PM 56.0167 -60.7667 213° Southwest 460 529 36,000  Level Gander Center
12:53PM 55.9167 -60.9167 220° Southwest 460 529 36,000  Level Gander Center
12:53PM 55.8667 -60.9833 217° Southwest 460 529 36,000  Level Gander Center
12:54PM 55.8000 -61.0500 209° Southwest 460 529 36,000  Level Gander Center
12:55PM 55.7000 -61.2000 220° Southwest 460 529 36,000  Level Gander Center
12:56PM 55.6167 -61.3167 218° Southwest 460 529 36,000  Level Gander Center
12:57PM 55.5000 -61.4333 210° Southwest 460 529 36,000  Level Gander Center
12:57PM 55.4667 -61.4833 220° Southwest 450 518 36,000  Level Gander Center
12:58PM 55.3500 -61.6333 216° Southwest 460 529 36,000  Level Gander Center
12:59PM 55.2500 -61.7500 214° Southwest 450 518 36,000  Level Gander Center
01:00PM 55.1500 -61.9000 221° Southwest 450 518 36,000  Level Gander Center
01:01PM 55.1000 -61.9500 210° Southwest 450 518 36,000  Level Gander Center
01:01PM 55.0500 -62.0167 217° Southwest 450 518 36,000  Level Gander Center
01:02PM 54.9500 -62.1500 217° Southwest 450 518 36,000  Level Gander Center
01:03PM 54.8833 -62.2167 210° Southwest 450 518 36,000  Level Gander Center
01:03PM 54.8500 -62.2667 221° Southwest 450 518 36,000  Level Gander Center
01:04PM 54.7500 -62.3833 214° Southwest 450 518 36,000  Level Gander Center
01:05PM 54.6500 -62.5167 218° Southwest 450 518 36,000  Level Gander Center
01:06PM 54.5333 -62.6333 210° Southwest 450 518 36,000  Level Gander Center
01:07PM 54.4667 -62.6833 204° Southwest 450 518 36,000  Level Gander Center
01:08PM 54.3667 -62.8333 221° Southwest 450 518 36,000  Level Gander Center
01:08PM 54.3333 -62.8833 221° Southwest 450 518 36,000  Level Gander Center
01:09PM 54.2167 -63.0000 210° Southwest 450 518 36,000  Level Gander Center
01:10PM 54.1333 -63.1000 215° Southwest 450 518 36,000  Level Gander Center
01:11PM 54.0167 -63.2500 217° Southwest 450 518 36,000  Level Gander Center
01:12PM 53.9167 -63.3500 211° Southwest 450 518 36,000  Level Gander Center
01:13PM 53.8333 -63.4667 220° Southwest 450 518 36,000  Level Gander Center
01:14PM 53.7000 -63.6000 211° Southwest 450 518 36,000  Level Gander Center
01:15PM 53.6000 -63.7000 211° Southwest 450 518 36,000  Level Gander Center
01:16PM 53.5000 -63.8333 218° Southwest 450 518 36,000  Level Gander Center
01:17PM 53.4000 -63.9500 215° Southwest 440 506 36,000  Level Gander Center
01:18PM 53.3000 -64.0833 219° Southwest 450 518 36,000  Level Gander Center
01:19PM 53.2000 -64.1833 211° Southwest 450 518 36,000  Level Gander Center
01:20PM 53.0833 -64.2833 207° Southwest 440 506 36,000  Level Gander Center
01:21PM 52.9833 -64.4167 219° Southwest 440 506 36,000  Level Gander Center
01:22PM 52.8833 -64.5167 211° Southwest 440 506 36,000  Level Gander Center
01:23PM 52.7833 -64.6333 215° Southwest 440 506 36,000  Level Gander Center
01:24PM 52.6833 -64.7333 211° Southwest 440 506 36,000  Level Gander Center
01:25PM 52.5667 -64.8667 215° Southwest 440 506 36,000  Level Gander Center
01:26PM 52.4667 -64.9667 211° Southwest 440 506 36,000  Level Gander Center
01:27PM 52.3667 -65.0667 211° Southwest 440 506 36,000  Level Gander Center
01:28PM 52.2667 -65.1833 216° Southwest 440 506 36,000  Level Gander Center
01:29PM 52.1500 -65.2833 208° Southwest 440 506 36,000  Level Gander Center
01:30PM 52.0500 -65.4167 219° Southwest 440 506 36,000  Level Gander Center
01:31PM 51.9500 -65.5167 212° Southwest 440 506 36,000  Level Gander Center
01:32PM 51.8667 -65.6167 217° Southwest 440 506 36,000  Level Gander Center
01:33PM 51.7500 -65.7167 208° Southwest 440 506 36,000  Level Gander Center
01:34PM 51.6500 -65.8167 212° Southwest 430 495 36,000  Level Gander Center
01:35PM 51.5500 -65.9333 216° Southwest 430 495 36,000  Level Gander Center
01:36PM 51.4500 -66.0333 212° Southwest 430 495 36,000  Level Gander Center
01:37PM 51.3333 -66.1333 208° Southwest 430 495 36,000  Level Gander Center
01:37PM 51.3167 -66.1167 148° Southeast 430 495 36,000  Level Montreal Center
01:38PM 51.2167 -66.2167 212° Southwest 430 495 36,000  Level Montreal Center
01:39PM 51.1167 -66.3167 212° Southwest 430 495 36,000  Level Montreal Center
01:40PM 51.0000 -66.4167 208° Southwest 430 495 36,000  Level Montreal Center
01:41PM 50.9000 -66.5333 216° Southwest 430 495 36,000  Level Montreal Center
01:42PM 50.8000 -66.6333 212° Southwest 430 495 36,000  Level Montreal Center
01:43PM 50.7000 -66.7333 212° Southwest 430 495 36,000  Level Montreal Center
01:44PM 50.6000 -66.8333 212° Southwest 430 495 36,000  Level Montreal Center
01:45PM 50.5167 -66.9333 217° Southwest 430 495 36,000  Level Gander Center
01:45PM 50.4833 -66.9333 180° South 430 495 36,000  Level Montreal Center
01:46PM 50.4000 -67.0000 207° Southwest 430 495 36,000  Level Montreal Center
01:47PM 50.2833 -67.1000 209° Southwest 430 495 36,000  Level Montreal Center
01:48PM 50.2167 -67.2167 228° Southwest 430 495 36,000  Level Gander Center
01:48PM 50.1833 -67.2000 162° South 430 495 36,000  Level Montreal Center
01:49PM 50.0833 -67.3000 213° Southwest 430 495 36,000  Level Montreal Center
01:50PM 50.0000 -67.4333 226° Southwest 430 495 36,000  Level Gander Center
01:51PM 49.9000 -67.5167 208° Southwest 430 495 36,000  Level Gander Center
01:51PM 49.8667 -67.5000 162° South 430 495 36,000  Level Montreal Center
01:52PM 49.7667 -67.6000 213° Southwest 430 495 36,000  Level Montreal Center
01:53PM 49.6667 -67.6833 208° Southwest 430 495 36,000  Level Montreal Center
01:54PM 49.5667 -67.7833 213° Southwest 430 495 36,000  Level Montreal Center
01:55PM 49.4667 -67.8833 213° Southwest 430 495 36,000  Level Montreal Center
01:56PM 49.3500 -67.9833 209° Southwest 430 495 36,000  Level Montreal Center
01:57PM 49.2667 -68.0667 213° Southwest 430 495 36,000  Level Montreal Center
01:58PM 49.1500 -68.1667 209° Southwest 430 495 36,000  Level Montreal Center
01:59PM 49.0667 -68.2833 223° Southwest 420 483 36,000  Level Montreal Center
02:00PM 48.9833 -68.4000 223° Southwest 420 483 36,000  Level Montreal Center
02:01PM 48.8833 -68.5167 218° Southwest 420 483 36,000  Level Montreal Center
02:02PM 48.8167 -68.6667 236° Southwest 420 483 36,000  Level Montreal Center
02:08PM 48.3380 -69.3590 236° Southwest 423 487 36,000  Level FlightAware
02:09PM 48.2800 -69.4400 223° Southwest 423 487 36,000  Level FlightAware
02:09PM 48.2280 -69.5110 222° Southwest 422 486 36,000  Level FlightAware
02:10PM 48.1690 -69.5940 223° Southwest 422 486 36,000  Level FlightAware
02:11PM 48.0660 -69.7360 223° Southwest 423 487 36,000  Level FlightAware
02:12PM 47.9970 -69.8310 223° Southwest 423 487 36,000  Level FlightAware
02:12PM 47.9420 -69.9060 222° Southwest 424 488 36,000  Level FlightAware
02:13PM 47.8860 -69.9820 222° Southwest 424 488 36,000  Level FlightAware
02:14PM 47.8170 -70.0750 222° Southwest 423 487 36,000  Level FlightAware
02:15PM 47.7620 -70.1500 223° Southwest 424 488 36,000  Level FlightAware
02:15PM 47.6990 -70.2350 222° Southwest 424 488 36,000  Level FlightAware
02:16PM 47.6430 -70.3110 222° Southwest 425 489 36,000  Level FlightAware
02:17PM 47.5800 -70.3950 222° Southwest 425 489 36,000  Level FlightAware
02:17PM 47.5110 -70.4870 222° Southwest 426 490 36,000  Level FlightAware
02:18PM 47.4460 -70.5730 222° Southwest 426 490 36,000  Level FlightAware
02:19PM 47.3870 -70.6510 222° Southwest 426 490 36,000  Level FlightAware
02:19PM 47.3290 -70.7290 222° Southwest 427 491 36,000  Level FlightAware
02:20PM 47.2630 -70.8150 221° Southwest 427 491 36,000  Level FlightAware
02:21PM 47.2120 -70.8830 222° Southwest 427 491 36,000  Level FlightAware
02:22PM 47.1390 -70.9780 222° Southwest 427 491 36,000  Level FlightAware
02:22PM 47.0870 -71.0460 222° Southwest 427 491 36,000  Level FlightAware
02:23PM 47.0210 -71.1320 222° Southwest 427 491 36,000  Level FlightAware
02:24PM 46.9550 -71.2180 222° Southwest 427 491 36,000  Level FlightAware
02:24PM 46.8970 -71.2930 221° Southwest 429 494 36,000  Level FlightAware
02:25PM 46.8320 -71.3770 221° Southwest 429 494 36,000  Level FlightAware
02:26PM 46.7780 -71.4460 221° Southwest 430 495 36,000  Level FlightAware
02:26PM 46.7250 -71.5140 221° Southwest 428 493 36,000  Level FlightAware
02:27PM 46.6660 -71.5900 221° Southwest 428 493 36,000 -180 Level FlightAware
02:28PM 46.5990 -71.6740 221° Southwest 430 495 35,800 -720 Descending FlightAware
02:28PM 46.5400 -71.7500 222° Southwest 429 494 35,000 -1,080 Descending FlightAware
02:29PM 46.4740 -71.8360 222° Southwest 419 482 34,300 -1,800 Descending FlightAware
02:30PM 46.4180 -71.9090 222° Southwest 417 480 32,500 -2,400 Descending FlightAware
02:30PM 46.3600 -71.9830 221° Southwest 407 468 31,100 -1,860 Descending FlightAware
02:31PM 46.2990 -72.0620 222° Southwest 394 453 29,900 -1,920 Descending FlightAware
02:32PM 46.2510 -72.1220 221° Southwest 383 441 28,600 -2,280 Descending FlightAware
02:33PM 46.1930 -72.1960 221° Southwest 366 421 26,900 -2,220 Descending FlightAware
02:33PM 46.1440 -72.2600 222° Southwest 351 404 25,500 -2,100 Descending FlightAware
02:34PM 46.0950 -72.3210 221° Southwest 347 399 24,100 -2,160 Descending FlightAware
02:35PM 46.0400 -72.3910 221° Southwest 343 395 22,500 -2,160 Descending FlightAware
02:35PM 45.9870 -72.4580 221° Southwest 339 390 20,900 -2,160 Descending FlightAware
02:36PM 45.9400 -72.5170 221° Southwest 328 377 19,500 -2,160 Descending FlightAware
02:37PM 45.8890 -72.5820 222° Southwest 323 372 17,900 -2,040 Descending FlightAware
02:37PM 45.8490 -72.6330 222° Southwest 323 372 16,800 -1,980 Descending FlightAware
02:38PM 45.7980 -72.6960 221° Southwest 322 371 15,300 -2,100 Descending FlightAware
02:39PM 45.7550 -72.7540 223° Southwest 315 362 13,900 -1,980 Descending FlightAware
02:39PM 45.7460 -72.7810 244° Southwest 310 357 13,500 -1,860 Descending FlightAware
02:40PM 45.7360 -72.8570 259° West 306 352 12,200 -1,920 Descending FlightAware
02:40PM 45.7260 -72.9490 261° West 300 345 10,800 -1,260 Descending FlightAware
02:41PM 45.7180 -73.0330 262° West 263 303 10,400 -840 Descending FlightAware
02:42PM 45.7110 -73.1030 262° West 240 276 9,600 -1,140 Descending FlightAware
02:42PM 45.7050 -73.1440 258° West 239 275 9,100 -900 Descending FlightAware
02:43PM 45.6980 -73.1870 257° West 234 269 8,800 -600 Descending FlightAware
02:43PM 45.6910 -73.2240 255° West 218 251 8,600 -900 Descending FlightAware
02:44PM 45.6840 -73.2650 256° West 205 236 8,000 -1,200 Descending FlightAware
02:44PM 45.6810 -73.2830 257° West 202 232 7,700 -1,500 Descending FlightAware
02:45PM 45.6750 -73.3230 258° West 201 231 6,900 -1,500 Descending FlightAware
02:45PM 45.6690 -73.3570 256° West 207 238 6,300 -1,200 Descending FlightAware
02:45PM 45.6630 -73.3910 256° West 205 236 5,900 -1,020 Descending FlightAware
02:46PM 45.6600 -73.4120 258° West 207 238 5,600 -1,200 Descending FlightAware
02:46PM 45.6540 -73.4440 255° West 204 235 5,100 -1,140 Descending FlightAware
02:47PM 45.6480 -73.4810 257° West 186 214 4,600 -840 Descending FlightAware
02:47PM 45.6420 -73.5160 256° West 181 208 4,300 -720 Descending FlightAware
02:47PM 45.6330 -73.5390 241° Southwest 183 211 4,000 -720 Descending FlightAware
02:48PM 45.6190 -73.5570 222° Southwest 186 214 3,800 -660 Descending FlightAware
02:48PM 45.6030 -73.5780 223° Southwest 194 223 3,500 -960 Descending FlightAware
02:49PM 45.5850 -73.6020 223° Southwest 188 216 3,000 -1,080 Descending FlightAware
02:49PM 45.5680 -73.6240 222° Southwest 181 208 2,500 -1,020 Descending FlightAware
02:50PM 45.5510 -73.6470 223° Southwest 174 200 2,100 -960 Descending FlightAware
02:50PM 45.5330 -73.6700 222° Southwest 164 189 1,600 -900 Descending FlightAware
02:51PM 45.5240 -73.6830 225° Southwest 157 181 1,300 -720 Descending FlightAware
02:51PM 45.5100 -73.7010 222° Southwest 145 167 1,000 -840 Descending FlightAware
02:52PM 45.4890 -73.7290 223° Southwest 140 161 400 -900 Descending FlightAware
02:52PM 45.4760 -73.7450 221° Southwest 105 121 -960 Descending FlightAware
02:53PM 45.4700 -73.7540 226° Southwest 43 49  Level FlightAware
02:53PM 45.4680 -73.7550 199° South 32 37  Level FlightAware
02:53PM 45.4660 -73.7560 199° South 32 37  Level FlightAware
02:54PM 45.4630 -73.7570 193° South 14 16  Level FlightAware
02:54PM 45.4610 -73.7560 161° South 8 9  Level FlightAware
02:55PM 45.4610 -73.7550 90° East 10 12  Level FlightAware